createdAt,value
2022-08-05T00:01:27.718Z,48.60
2022-08-05T00:03:57.148Z,48.60
2022-08-05T00:06:30.668Z,48.60
2022-08-05T00:09:00.802Z,48.60
2022-08-05T00:11:34.591Z,48.60
2022-08-05T00:14:12.921Z,48.70
2022-08-05T00:16:53.030Z,48.60
2022-08-05T00:19:22.510Z,48.80
2022-08-05T00:21:50.434Z,48.80
2022-08-05T00:24:19.264Z,48.70
2022-08-05T00:26:53.176Z,48.80
2022-08-05T00:29:22.554Z,48.80
2022-08-05T00:32:09.362Z,48.80
2022-08-05T00:34:53.257Z,48.80
2022-08-05T00:37:24.815Z,48.80
2022-08-05T00:39:57.480Z,49.40
2022-08-05T00:42:38.908Z,48.80
2022-08-05T00:45:08.843Z,48.90
2022-08-05T00:47:57.043Z,48.90
2022-08-05T00:50:25.788Z,48.90
2022-08-05T00:52:55.070Z,48.90
2022-08-05T00:55:23.001Z,49.00
2022-08-05T00:58:02.243Z,49.00
2022-08-05T01:00:32.234Z,49.00
2022-08-05T01:03:00.960Z,49.10
2022-08-05T01:05:28.477Z,49.10
2022-08-05T01:08:40.620Z,49.10
2022-08-05T01:10:59.897Z,49.10
2022-08-05T01:14:00.054Z,49.10
2022-08-05T01:16:48.164Z,49.20
2022-08-05T01:20:02.341Z,49.20
2022-08-05T01:22:57.673Z,49.10
2022-08-05T01:25:54.106Z,49.20
2022-08-05T01:28:33.253Z,49.20
2022-08-05T01:31:27.269Z,49.20
2022-08-05T01:34:11.049Z,49.20
2022-08-05T01:36:46.865Z,49.20
2022-08-05T01:39:46.042Z,49.20
2022-08-05T01:42:05.736Z,49.20
2022-08-05T01:44:35.472Z,49.20
2022-08-05T01:47:05.109Z,49.30
2022-08-05T01:50:01.426Z,49.30
2022-08-05T01:52:23.652Z,49.30
2022-08-05T01:54:56.029Z,49.30
2022-08-05T01:58:09.488Z,49.30
2022-08-05T02:00:20.436Z,49.40
2022-08-05T02:03:03.522Z,49.30
2022-08-05T02:05:34.379Z,49.40
2022-08-05T02:08:04.546Z,49.40
2022-08-05T02:10:40.077Z,49.90
2022-08-05T02:13:16.898Z,49.40
2022-08-05T02:15:47.979Z,49.40
2022-08-05T02:18:34.477Z,49.40
2022-08-05T02:21:25.513Z,49.50
2022-08-05T02:23:56.862Z,49.40
2022-08-05T02:26:53.712Z,50.00
2022-08-05T02:29:58.158Z,49.40
2022-08-05T02:32:23.722Z,49.50
2022-08-05T02:34:54.997Z,49.50
2022-08-05T02:37:23.507Z,49.60
2022-08-05T02:39:53.542Z,49.60
2022-08-05T02:42:27.590Z,49.60
2022-08-05T02:45:00.688Z,49.60
2022-08-05T02:47:58.652Z,49.70
2022-08-05T02:50:19.147Z,49.70
2022-08-05T02:52:47.128Z,49.70
2022-08-05T02:55:14.740Z,49.80
2022-08-05T02:58:09.834Z,49.80
2022-08-05T03:00:35.324Z,49.80
2022-08-05T03:03:07.643Z,49.90
2022-08-05T03:06:53.762Z,50.30
2022-08-05T03:08:29.846Z,50.00
2022-08-05T03:11:53.779Z,50.10
2022-08-05T03:13:51.606Z,50.20
2022-08-05T03:16:30.101Z,50.70
2022-08-05T03:18:59.648Z,50.30
2022-08-05T03:21:28.864Z,50.20
2022-08-05T03:24:00.987Z,50.20
2022-08-05T03:26:32.075Z,50.20
2022-08-05T03:28:59.889Z,50.10
2022-08-05T03:31:56.509Z,50.20
2022-08-05T03:34:15.024Z,50.20
2022-08-05T03:36:42.203Z,50.20
2022-08-05T03:39:19.919Z,50.10
2022-08-05T03:41:56.120Z,50.20
2022-08-05T03:44:24.376Z,50.30
2022-08-05T03:46:52.007Z,50.30
2022-08-05T03:49:19.728Z,50.30
2022-08-05T03:52:36.837Z,50.30
2022-08-05T03:55:50.310Z,50.30
2022-08-05T03:57:46.235Z,50.20
2022-08-05T04:00:16.276Z,50.20
2022-08-05T04:02:57.915Z,50.30
2022-08-05T04:05:33.719Z,50.30
2022-08-05T04:08:14.574Z,50.30
2022-08-05T04:10:45.340Z,50.20
2022-08-05T04:13:12.883Z,50.20
2022-08-05T04:15:52.727Z,50.20
2022-08-05T04:18:28.860Z,50.20
2022-08-05T04:20:58.647Z,50.20
2022-08-05T04:24:04.836Z,50.20
2022-08-05T04:26:17.383Z,50.20
2022-08-05T04:28:50.958Z,50.20
2022-08-05T04:31:19.794Z,50.10
2022-08-05T04:34:17.538Z,50.10
2022-08-05T04:36:45.600Z,50.00
2022-08-05T04:39:20.363Z,50.00
2022-08-05T04:41:48.610Z,49.90
2022-08-05T04:44:29.283Z,49.90
2022-08-05T04:46:59.258Z,49.90
2022-08-05T04:49:38.883Z,49.80
2022-08-05T04:52:15.181Z,49.80
2022-08-05T04:54:42.575Z,49.70
2022-08-05T04:57:09.747Z,49.70
2022-08-05T04:59:38.902Z,49.70
2022-08-05T05:02:37.630Z,49.60
2022-08-05T05:05:02.187Z,49.50
2022-08-05T05:07:32.365Z,49.50
2022-08-05T05:10:02.311Z,49.40
2022-08-05T05:12:30.200Z,49.50
2022-08-05T05:14:57.360Z,50.10
2022-08-05T05:17:56.585Z,49.80
2022-08-05T05:20:13.325Z,50.20
2022-08-05T05:22:44.133Z,50.50
2022-08-05T05:25:16.543Z,50.60
2022-08-05T05:27:48.455Z,50.30
2022-08-05T05:30:29.881Z,49.70
2022-08-05T05:33:03.512Z,49.50
2022-08-05T05:35:43.222Z,49.50
2022-08-05T05:38:12.901Z,49.20
2022-08-05T05:40:46.635Z,49.30
2022-08-05T05:43:16.709Z,49.20
2022-08-05T05:45:55.384Z,49.60
2022-08-05T05:48:27.655Z,49.60
2022-08-05T05:50:55.422Z,50.50
2022-08-05T05:53:22.990Z,51.10
2022-08-05T05:56:00.477Z,51.30
2022-08-05T05:58:31.893Z,51.60
2022-08-05T06:01:12.426Z,51.80
2022-08-05T06:04:00.700Z,52.20
2022-08-05T06:06:31.155Z,52.90
2022-08-05T06:08:58.984Z,53.80
2022-08-05T06:11:29.090Z,54.10
2022-08-05T06:13:56.941Z,54.90
2022-08-05T06:16:28.884Z,55.20
2022-08-05T06:19:01.050Z,55.20
2022-08-05T06:21:35.986Z,54.80
2022-08-05T06:24:09.972Z,55.50
2022-08-05T06:26:52.325Z,55.00
2022-08-05T06:29:46.736Z,54.80
2022-08-05T06:32:26.217Z,54.80
2022-08-05T06:34:57.878Z,54.90
2022-08-05T06:37:56.301Z,54.90
2022-08-05T06:40:18.377Z,55.00
2022-08-05T06:42:51.579Z,55.30
2022-08-05T06:45:21.458Z,55.40
2022-08-05T06:48:36.593Z,55.70
2022-08-05T06:50:55.043Z,55.90
2022-08-05T06:53:27.690Z,56.50
2022-08-05T06:55:58.366Z,56.60
2022-08-05T06:58:35.397Z,57.20
2022-08-05T07:01:06.052Z,57.50
2022-08-05T07:03:34.670Z,57.60
2022-08-05T07:06:05.757Z,57.50
2022-08-05T07:08:47.552Z,58.00
2022-08-05T07:11:22.529Z,58.00
2022-08-05T07:14:20.211Z,58.10
2022-08-05T07:17:56.912Z,58.50
2022-08-05T07:22:30.162Z,59.00
2022-08-05T07:25:53.930Z,58.90
2022-08-05T07:27:57.993Z,59.20
2022-08-05T07:30:32.281Z,59.80
2022-08-05T07:33:01.279Z,59.40
2022-08-05T07:35:55.877Z,59.40
2022-08-05T07:38:32.850Z,59.40
2022-08-05T07:42:08.709Z,59.20
2022-08-05T07:43:57.909Z,59.00
2022-08-05T07:46:28.958Z,59.20
2022-08-05T07:49:01.942Z,58.80
2022-08-05T07:51:40.421Z,58.70
2022-08-05T07:54:09.762Z,58.70
2022-08-05T07:57:00.611Z,58.40
2022-08-05T07:59:39.058Z,58.30
2022-08-05T08:02:10.695Z,58.70
2022-08-05T08:04:46.050Z,58.80
2022-08-05T08:07:15.188Z,58.90
2022-08-05T08:09:43.665Z,58.70
2022-08-05T08:12:34.994Z,58.50
2022-08-05T08:15:02.639Z,58.40
2022-08-05T08:17:33.209Z,58.40
2022-08-05T08:20:21.790Z,58.20
2022-08-05T08:22:55.818Z,58.20
2022-08-05T08:25:26.502Z,58.00
2022-08-05T08:27:56.125Z,58.00
2022-08-05T08:30:33.935Z,57.80
2022-08-05T08:33:13.947Z,57.80
2022-08-05T08:35:52.911Z,57.70
2022-08-05T08:38:36.166Z,57.60
2022-08-05T08:41:08.812Z,57.40
2022-08-05T08:45:19.798Z,57.50
2022-08-05T08:46:29.330Z,57.40
2022-08-05T08:49:06.155Z,57.40
2022-08-05T08:52:03.337Z,57.20
2022-08-05T08:54:36.570Z,57.20
2022-08-05T08:57:05.537Z,57.40
2022-08-05T08:59:41.942Z,57.50
2022-08-05T09:02:16.708Z,57.50
2022-08-05T09:04:57.867Z,57.70
2022-08-05T09:07:39.375Z,57.60
2022-08-05T09:10:08.027Z,57.70
2022-08-05T09:12:38.853Z,57.70
2022-08-05T09:15:06.933Z,57.70
2022-08-05T09:17:41.417Z,57.60
2022-08-05T09:20:11.960Z,57.50
2022-08-05T09:23:18.980Z,57.60
2022-08-05T09:26:01.308Z,57.40
2022-08-05T09:28:34.028Z,57.30
2022-08-05T09:31:22.173Z,57.30
2022-08-05T09:33:56.364Z,57.30
2022-08-05T09:36:27.789Z,57.40
2022-08-05T09:39:16.558Z,57.30
2022-08-05T09:42:01.336Z,57.40
2022-08-05T09:44:42.125Z,57.20
2022-08-05T09:47:15.886Z,57.50
2022-08-05T09:50:00.681Z,57.50
2022-08-05T09:52:32.743Z,57.40
2022-08-05T09:55:55.086Z,57.70
2022-08-05T09:57:54.653Z,57.70
2022-08-05T10:00:26.453Z,57.60
2022-08-05T10:02:58.699Z,57.50
2022-08-05T10:05:28.281Z,57.50
2022-08-05T10:08:35.379Z,57.20
2022-08-05T10:10:54.347Z,57.00
2022-08-05T10:13:47.671Z,56.80
2022-08-05T10:16:41.797Z,56.60
2022-08-05T10:19:23.616Z,56.60
2022-08-05T10:22:15.658Z,56.50
2022-08-05T10:24:58.747Z,56.50
2022-08-05T10:28:13.080Z,56.40
2022-08-05T10:31:19.944Z,56.30
2022-08-05T10:33:03.609Z,56.30
2022-08-05T10:35:33.680Z,56.30
2022-08-05T10:38:01.883Z,56.40
2022-08-05T10:40:45.041Z,56.30
2022-08-05T10:43:50.473Z,56.60
2022-08-05T10:46:23.991Z,56.60
2022-08-05T10:49:01.457Z,56.80
2022-08-05T10:51:53.212Z,56.70
2022-08-05T10:54:57.046Z,56.70
2022-08-05T10:57:32.446Z,56.90
2022-08-05T11:00:22.866Z,56.90
2022-08-05T11:03:22.992Z,56.80
2022-08-05T11:06:16.135Z,57.40
2022-08-05T11:09:32.056Z,57.70
2022-08-05T11:12:54.378Z,57.70
2022-08-05T11:16:00.663Z,57.80
2022-08-05T11:18:34.175Z,57.60
2022-08-05T11:21:11.664Z,57.30
2022-08-05T11:24:04.527Z,57.50
2022-08-05T11:26:40.604Z,56.70
2022-08-05T11:29:30.481Z,56.60
2022-08-05T11:32:26.602Z,56.40
2022-08-05T11:34:55.187Z,56.60
2022-08-05T11:38:29.985Z,57.20
2022-08-05T11:41:03.654Z,56.60
2022-08-05T11:44:11.215Z,56.80
2022-08-05T11:47:10.537Z,56.60
2022-08-05T11:49:29.315Z,56.20
2022-08-05T11:52:02.117Z,56.40
2022-08-05T11:54:40.649Z,56.50
2022-08-05T11:57:24.910Z,56.40
2022-08-05T11:59:53.657Z,56.40
2022-08-05T12:02:30.298Z,56.30
2022-08-05T12:05:08.191Z,56.10
2022-08-05T12:08:09.100Z,56.20
2022-08-05T12:10:38.488Z,56.00
2022-08-05T12:13:47.356Z,56.00
2022-08-05T12:16:14.732Z,56.00
2022-08-05T12:18:49.305Z,55.70
2022-08-05T12:21:26.777Z,55.80
2022-08-05T12:24:09.869Z,55.70
2022-08-05T12:26:48.067Z,55.70
2022-08-05T12:29:23.062Z,55.90
2022-08-05T12:32:01.726Z,55.80
2022-08-05T12:34:32.714Z,55.90
2022-08-05T12:37:10.648Z,56.10
2022-08-05T12:39:39.864Z,56.10
2022-08-05T12:42:17.660Z,56.10
2022-08-05T12:44:45.253Z,56.00
2022-08-05T12:47:17.078Z,56.10
2022-08-05T12:50:03.065Z,56.00
2022-08-05T12:52:39.315Z,56.00
2022-08-05T12:55:26.937Z,56.10
2022-08-05T12:58:51.349Z,55.90
2022-08-05T13:02:00.553Z,56.30
2022-08-05T13:03:41.933Z,56.30
2022-08-05T13:06:17.982Z,56.20
2022-08-05T13:08:51.834Z,56.30
2022-08-05T13:11:25.342Z,56.20
2022-08-05T13:14:24.520Z,56.30
2022-08-05T13:16:56.558Z,56.30
2022-08-05T13:19:52.222Z,56.50
2022-08-05T13:22:27.722Z,56.50
2022-08-05T13:25:00.952Z,56.50
2022-08-05T13:27:37.938Z,56.40
2022-08-05T13:30:35.915Z,56.40
2022-08-05T13:32:56.593Z,56.50
2022-08-05T13:35:31.480Z,56.30
2022-08-05T13:38:20.472Z,56.40
2022-08-05T13:40:57.716Z,56.50
2022-08-05T13:43:24.921Z,56.40
2022-08-05T13:46:12.331Z,56.40
2022-08-05T13:48:57.550Z,56.30
2022-08-05T13:51:40.390Z,56.30
2022-08-05T13:54:11.740Z,56.80
2022-08-05T13:56:45.114Z,56.20
2022-08-05T13:59:24.483Z,56.10
2022-08-05T14:01:59.096Z,56.20
2022-08-05T14:04:54.880Z,56.10
2022-08-05T14:07:55.653Z,56.00
2022-08-05T14:10:28.650Z,56.00
2022-08-05T14:12:57.883Z,56.00
2022-08-05T14:16:07.366Z,56.10
2022-08-05T14:18:17.781Z,56.20
2022-08-05T14:20:49.171Z,56.30
2022-08-05T14:23:25.193Z,56.30
2022-08-05T14:25:58.146Z,56.20
2022-08-05T14:28:27.869Z,56.10
2022-08-05T14:30:57.198Z,56.00
2022-08-05T14:33:24.374Z,56.10
2022-08-05T14:35:54.542Z,55.90
2022-08-05T14:38:27.673Z,55.90
2022-08-05T14:41:01.760Z,55.90
2022-08-05T14:43:59.480Z,55.80
2022-08-05T14:46:22.465Z,55.80
2022-08-05T14:48:56.147Z,55.80
2022-08-05T14:51:24.847Z,55.80
2022-08-05T14:54:26.319Z,57.70
2022-08-05T14:56:46.843Z,58.70
2022-08-05T14:59:14.831Z,59.70
2022-08-05T15:01:47.879Z,60.60
2022-08-05T15:04:15.966Z,61.30
2022-08-05T15:06:49.453Z,61.70
2022-08-05T15:09:52.533Z,61.60
2022-08-05T15:12:06.920Z,61.80
2022-08-05T15:14:43.104Z,61.90
2022-08-05T15:17:45.121Z,61.70
2022-08-05T15:20:05.555Z,61.30
2022-08-05T15:22:33.078Z,61.40
2022-08-05T15:25:00.734Z,61.60
2022-08-05T15:27:42.878Z,61.30
2022-08-05T15:30:19.008Z,61.20
2022-08-05T15:32:46.902Z,61.00
2022-08-05T15:35:14.896Z,61.10
2022-08-05T15:38:08.438Z,60.80
2022-08-05T15:41:00.018Z,60.40
2022-08-05T15:43:20.374Z,60.00
2022-08-05T15:46:00.592Z,59.10
2022-08-05T15:48:28.665Z,58.10
2022-08-05T15:50:56.333Z,56.60
2022-08-05T15:53:26.581Z,55.10
2022-08-05T15:56:03.898Z,53.70
2022-08-05T15:58:36.838Z,52.50
2022-08-05T16:01:16.433Z,51.70
2022-08-05T16:03:48.363Z,50.60
2022-08-05T16:06:20.306Z,49.90
2022-08-05T16:08:50.930Z,49.30
2022-08-05T16:11:39.773Z,48.70
2022-08-05T16:14:07.936Z,48.30
2022-08-05T16:16:36.693Z,47.80
2022-08-05T16:19:04.565Z,47.30
2022-08-05T16:22:00.160Z,46.90
2022-08-05T16:24:39.778Z,46.80
2022-08-05T16:27:07.520Z,46.50
2022-08-05T16:29:37.419Z,46.50
2022-08-05T16:32:09.569Z,46.10
2022-08-05T16:34:37.065Z,45.90
2022-08-05T16:38:02.635Z,45.70
2022-08-05T16:40:05.831Z,45.60
2022-08-05T16:42:34.508Z,45.40
2022-08-05T16:45:05.984Z,45.10
2022-08-05T16:47:54.429Z,45.10
2022-08-05T16:50:24.613Z,45.00
2022-08-05T16:52:51.734Z,44.80
2022-08-05T16:55:20.450Z,44.60
2022-08-05T16:57:53.689Z,44.50
2022-08-05T17:00:34.494Z,44.40
2022-08-05T17:03:09.239Z,44.30
2022-08-05T17:05:50.241Z,44.10
2022-08-05T17:08:36.516Z,43.90
2022-08-05T17:11:16.491Z,43.70
2022-08-05T17:13:45.170Z,43.60
2022-08-05T17:16:32.923Z,43.30
2022-08-05T17:19:00.451Z,43.20
2022-08-05T17:21:36.165Z,43.10
2022-08-05T17:24:19.810Z,43.00
2022-08-05T17:26:57.032Z,42.90
2022-08-05T17:29:33.869Z,42.80
2022-08-05T17:32:17.086Z,42.80
2022-08-05T17:34:48.065Z,42.80
2022-08-05T17:37:40.743Z,42.80
2022-08-05T17:40:12.856Z,42.70
2022-08-05T17:42:46.610Z,42.70
2022-08-05T17:45:22.165Z,42.80
2022-08-05T17:47:55.041Z,43.00
2022-08-05T17:50:28.621Z,43.00
2022-08-05T17:52:59.746Z,43.10
2022-08-05T17:55:38.511Z,43.20
2022-08-05T17:58:09.608Z,43.30
2022-08-05T18:00:40.886Z,43.30
2022-08-05T18:03:12.172Z,43.30
2022-08-05T18:05:55.583Z,43.40
2022-08-05T18:08:28.806Z,43.50
2022-08-05T18:10:57.489Z,43.50
2022-08-05T18:13:25.843Z,43.50
2022-08-05T18:15:53.195Z,43.50
2022-08-05T18:18:21.776Z,43.60
2022-08-05T18:20:53.559Z,43.50
2022-08-05T18:23:22.261Z,43.60
2022-08-05T18:25:57.471Z,43.70
2022-08-05T18:28:28.480Z,43.70
2022-08-05T18:30:55.853Z,43.70
2022-08-05T18:33:24.213Z,43.80
2022-08-05T18:36:04.209Z,43.90
2022-08-05T18:38:36.109Z,43.90
2022-08-05T18:41:56.809Z,44.00
2022-08-05T18:43:52.147Z,44.10
2022-08-05T18:46:19.854Z,44.10
2022-08-05T18:48:51.819Z,44.20
2022-08-05T18:52:04.971Z,44.30
2022-08-05T18:54:31.847Z,44.40
2022-08-05T18:57:01.325Z,44.40
2022-08-05T18:59:43.059Z,44.50
2022-08-05T19:02:38.073Z,44.50
2022-08-05T19:06:05.840Z,45.10
2022-08-05T19:07:55.368Z,44.60
2022-08-05T19:10:28.542Z,44.60
2022-08-05T19:12:56.842Z,44.70
2022-08-05T19:15:58.199Z,44.70
2022-08-05T19:18:20.799Z,44.80
2022-08-05T19:20:52.409Z,45.40
2022-08-05T19:24:04.480Z,44.90
2022-08-05T19:26:08.402Z,44.90
2022-08-05T19:28:42.058Z,44.90
2022-08-05T19:31:13.474Z,44.90
2022-08-05T19:33:48.585Z,45.00
2022-08-05T19:36:25.607Z,45.00
2022-08-05T19:38:55.334Z,45.00
2022-08-05T19:42:06.351Z,45.00
2022-08-05T19:44:16.638Z,45.00
2022-08-05T19:46:43.985Z,45.00
2022-08-05T19:49:12.511Z,45.00
2022-08-05T19:52:05.760Z,45.00
2022-08-05T19:54:34.557Z,45.00
2022-08-05T19:57:06.693Z,45.00
2022-08-05T19:59:55.109Z,45.00
2022-08-05T20:02:26.042Z,45.10
2022-08-05T20:04:55.597Z,45.20
2022-08-05T20:07:45.775Z,45.20
2022-08-05T20:10:15.689Z,45.20
2022-08-05T20:12:46.449Z,45.20
2022-08-05T20:15:48.011Z,45.20
2022-08-05T20:18:10.769Z,45.20
2022-08-05T20:20:55.115Z,45.20
2022-08-05T20:23:22.736Z,45.30
2022-08-05T20:25:52.341Z,45.30
2022-08-05T20:28:21.041Z,45.30
2022-08-05T20:30:49.553Z,45.40
2022-08-05T20:33:16.921Z,45.40
2022-08-05T20:35:45.703Z,45.40
2022-08-05T20:38:19.996Z,45.40
2022-08-05T20:40:50.531Z,45.40
2022-08-05T20:43:57.909Z,45.40
2022-08-05T20:46:06.946Z,45.50
2022-08-05T20:48:36.581Z,45.50
2022-08-05T20:51:08.089Z,45.60
2022-08-05T20:53:37.058Z,45.50
2022-08-05T20:56:09.693Z,45.60
2022-08-05T20:58:37.242Z,45.60
2022-08-05T21:01:05.185Z,45.60
2022-08-05T21:03:34.558Z,45.60
2022-08-05T21:06:02.624Z,45.70
2022-08-05T21:08:42.450Z,45.60
2022-08-05T21:11:12.680Z,45.70
2022-08-05T21:13:56.137Z,45.60
2022-08-05T21:16:29.595Z,45.70
2022-08-05T21:18:59.961Z,45.70
2022-08-05T21:21:44.617Z,45.80
2022-08-05T21:24:19.744Z,45.80
2022-08-05T21:26:57.882Z,45.80
2022-08-05T21:29:31.836Z,45.90
2022-08-05T21:32:00.813Z,45.90
2022-08-05T21:34:28.405Z,45.90
2022-08-05T21:36:59.070Z,45.90
2022-08-05T21:39:28.059Z,46.00
2022-08-05T21:42:01.260Z,46.00
2022-08-05T21:44:30.155Z,46.10
2022-08-05T21:46:58.797Z,46.10
2022-08-05T21:49:59.397Z,46.20
2022-08-05T21:52:22.155Z,46.20
2022-08-05T21:54:55.098Z,46.10
2022-08-05T21:57:31.406Z,46.20
2022-08-05T22:00:06.180Z,46.30
2022-08-05T22:02:34.524Z,46.20
2022-08-05T22:05:01.789Z,46.30
2022-08-05T22:07:39.910Z,46.30
2022-08-05T22:10:25.526Z,46.30
2022-08-05T22:12:57.427Z,46.30
2022-08-05T22:16:01.498Z,46.40
2022-08-05T22:18:13.241Z,46.30
2022-08-05T22:20:42.901Z,46.40
2022-08-05T22:24:02.299Z,46.40
2022-08-05T22:26:38.683Z,46.40
2022-08-05T22:29:06.956Z,46.50
2022-08-05T22:31:44.363Z,46.50
2022-08-05T22:34:20.212Z,46.50
2022-08-05T22:36:58.542Z,46.50
2022-08-05T22:39:32.976Z,46.50
2022-08-05T22:42:10.075Z,46.60
2022-08-05T22:44:39.178Z,46.60
2022-08-05T22:47:06.681Z,46.60
2022-08-05T22:50:20.195Z,46.70
2022-08-05T22:52:30.121Z,46.70
2022-08-05T22:55:01.326Z,46.70
2022-08-05T22:57:34.115Z,46.70
2022-08-05T23:00:07.844Z,46.80
2022-08-05T23:02:40.157Z,46.80
2022-08-05T23:05:15.821Z,46.80
2022-08-05T23:07:45.234Z,46.90
2022-08-05T23:10:19.960Z,46.90
2022-08-05T23:12:51.542Z,46.90
2022-08-05T23:15:21.708Z,46.90
2022-08-05T23:18:01.134Z,47.00
2022-08-05T23:20:32.085Z,47.00
2022-08-05T23:23:00.256Z,47.00
2022-08-05T23:25:51.861Z,47.00
2022-08-05T23:28:18.422Z,47.00
2022-08-05T23:30:53.322Z,47.00
2022-08-05T23:33:22.205Z,47.00
2022-08-05T23:35:56.041Z,47.20
2022-08-05T23:38:26.708Z,47.10
2022-08-05T23:40:54.193Z,47.10
2022-08-05T23:43:25.554Z,47.20
2022-08-05T23:46:20.666Z,47.20
2022-08-05T23:48:59.268Z,47.20
2022-08-05T23:51:55.904Z,47.20
2022-08-05T23:54:38.160Z,47.30
2022-08-05T23:57:06.808Z,47.30
